Terminal Aerodrome Forecast
Issued by NWS

Home | Current Version | Previous Version | Text Only | Print | Product List | Glossary On
Versions: 1 2 3 4 5 6 7 8 9 10 11 12 13
742
FTUS45 KTFX 302325
TAFLWT
TAF
KLWT 302325Z 3100/3124 30012G20KT P6SM SCT035 BKN070
     FM310400 28006KT P6SM VCSH BKN040
     FM310800 28012G22KT P6SM -SHRA OVC020
     FM311800 30014G25KT P6SM VCSH BKN050=

USA.gov is the U.S. government's official web portal to all federal, state and local government web resources and services.